KDMO/DMO METAR and TAF weather

Enter ICAO airport designator
Station Type Date Time Source
KDMO METAR 2018/12/10 23:53 UTC NOAA

KDMO 102353Z AUTO 20005KT 10SM CLR 01/M05 A3029 RMK AO2 SLP267 T00061050 10039 21011 50006


Station Type Date Time Source
KDMO Decoded METAR 2018/12/10 23:53 UTC NOAA

SEDALIA MEMORIAL AIRPORT, MO, United States (KDMO) 38-43N 93-10W 274M
Dec 10, 2018 - 06:53 PM EST / 2018.12.10 2353 UTC
Wind: from the SSW (200 degrees) at 6 MPH (5 KT):0
Visibility: 10 mile(s):0
Sky conditions: clear
Temperature: 33.1 F (0.6 C)
Windchill: 28 F (-2 C):1
Dew Point: 23.0 F (-5.0 C)
Relative Humidity: 66%
Pressure (altimeter): 30.29 in. Hg (1025 hPa)
Pressure tendency: 0.02 inches (0.6 hPa) higher than three hours ago
ob: KDMO 102353Z AUTO 20005KT 10SM CLR 01/M05 A3029 RMK AO2 SLP267 T00061050 10039 21011 50006
cycle: 0

Station Type Date Time Source
KDMO TAF UTC NOAA

Error!


Example: see airport list